Time;durP1;ratioP1;P1;durP2;ratioP2;P2;SDS_P1;SDS_P2;PMS_P1;PMS_P2;Temp;Humidity;BMP_temperature;BMP_pressure;BME280_temperature;BME280_humidity;BME280_pressure;Samples;Min_cycle;Max_cycle;Signal;HPM_P1;HPM_P2
2022/07/12 00:02:12;;;;;;;3.35;2.78;;;16.10;99.90;;;;;;6213235;23;20035;-96
2022/07/12 00:09:33;;;;;;;2.70;2.35;;;16.20;99.90;;;;;;6151833;23;20470;-95
2022/07/12 00:12:07;;;;;;;3.47;3.17;;;15.50;99.90;;;;;;6121801;23;20015;-93
2022/07/12 00:14:33;;;;;;;3.35;3.05;;;16.10;99.90;;;;;;6233733;23;20012;-93
2022/07/12 00:17:04;;;;;;;3.70;3.40;;;16.10;99.90;;;;;;6213845;23;20012;-93
2022/07/12 00:19:32;;;;;;;3.58;3.28;;;16.10;99.90;;;;;;6207815;23;20377;-93
2022/07/12 00:21:58;;;;;;;3.95;2.83;;;16.10;99.90;;;;;;6200322;23;20008;-94
2022/07/12 00:24:24;;;;;;;3.47;3.17;;;16.10;99.90;;;;;;6199420;23;20046;-93
2022/07/12 00:26:50;;;;;;;3.45;3.15;;;16.10;99.90;;;;;;6203667;23;20441;-93
2022/07/12 00:29:16;;;;;;;3.88;3.00;;;16.00;99.90;;;;;;6198371;23;20016;-94
2022/07/12 00:31:42;;;;;;;3.25;2.95;;;16.00;99.90;;;;;;6198732;23;20022;-94
2022/07/12 00:34:11;;;;;;;3.13;2.80;;;15.90;99.90;;;;;;6198340;23;20016;-93
2022/07/12 00:36:37;;;;;;;3.90;3.35;;;15.70;99.90;;;;;;6199494;23;20012;-94
2022/07/12 00:39:10;;;;;;;3.17;2.80;;;16.00;99.90;;;;;;6234122;23;20046;-94
2022/07/12 00:45:10;;;;;;;3.50;3.20;;;15.90;99.90;;;;;;6263286;23;20026;-93
2022/07/12 00:47:43;;;;;;;3.90;3.42;;;15.90;99.90;;;;;;6218229;23;20016;-94
2022/07/12 00:50:17;;;;;;;4.00;3.33;;;15.90;99.90;;;;;;6224712;23;20047;-95
2022/07/12 00:52:44;;;;;;;4.82;3.15;;;16.10;99.90;;;;;;6223441;23;20074;-93
2022/07/12 00:55:12;;;;;;;3.83;3.22;;;16.10;99.90;;;;;;6200856;23;20019;-94
2022/07/12 00:57:39;;;;;;;4.00;3.50;;;16.00;99.90;;;;;;6198564;23;20442;-94
2022/07/12 01:00:19;;;;;;;4.13;3.30;;;16.00;99.90;;;;;;6225894;23;20012;-94
2022/07/12 01:03:29;;;;;;;4.30;3.90;;;16.20;99.90;;;;;;6232965;23;20031;-94
2022/07/12 01:06:10;;;;;;;4.40;3.30;;;16.10;99.90;;;;;;6248405;23;20409;-94
2022/07/12 01:08:37;;;;;;;5.32;3.55;;;15.90;99.90;;;;;;6233473;23;20023;-94
2022/07/12 01:11:52;;;;;;;;;;;;;;;;;;;;;
2022/07/12 01:14:54;;;;;;;3.60;3.08;;;15.90;99.90;;;;;;6255726;23;20022;-94
2022/07/12 01:17:57;;;;;;;3.70;3.30;;;16.10;99.90;;;;;;6212521;23;20017;-94
2022/07/12 01:20:27;;;;;;;4.60;3.75;;;15.70;99.90;;;;;;6184249;23;20065;-93
2022/07/12 01:23:13;;;;;;;3.55;3.25;;;15.90;99.90;;;;;;6138661;23;20057;-95
2022/07/12 01:25:39;;;;;;;4.03;3.63;;;15.90;99.90;;;;;;6192957;23;20343;-94
2022/07/12 01:28:07;;;;;;;4.90;3.67;;;15.80;99.90;;;;;;6167531;23;20017;-94
2022/07/12 01:31:22;;;;;;;3.20;2.90;;;16.10;99.90;;;;;;6174369;23;20058;-94
2022/07/12 01:33:54;;;;;;;3.83;3.22;;;15.90;99.90;;;;;;6177477;23;20023;-95
2022/07/12 01:36:25;;;;;;;3.65;3.10;;;15.90;99.90;;;;;;6170365;23;20183;-95
2022/07/12 01:38:51;;;;;;;3.05;2.75;;;16.00;99.90;;;;;;6118873;23;20013;-95
2022/07/12 01:41:17;;;;;;;3.30;3.00;;;16.00;99.90;;;;;;6167587;23;20016;-95
2022/07/12 01:43:43;;;;;;;3.38;3.08;;;15.80;99.90;;;;;;6168670;23;20013;-94
2022/07/12 01:46:38;;;;;;;3.80;3.50;;;16.00;99.90;;;;;;6152265;23;20068;-95
2022/07/12 01:49:24;;;;;;;3.30;3.00;;;15.70;99.90;;;;;;6229273;23;20022;-95
2022/07/12 01:52:26;;;;;;;3.28;2.97;;;15.00;99.90;;;;;;6209300;23;20012;-93
2022/07/12 01:54:57;;;;;;;4.18;3.17;;;15.80;99.90;;;;;;6225204;23;20054;-94
2022/07/12 01:57:27;;;;;;;4.25;3.85;;;15.80;99.90;;;;;;6226560;23;20099;-95
2022/07/12 01:59:57;;;;;;;5.03;3.53;;;15.70;99.90;;;;;;6241226;23;20012;-94
2022/07/12 02:02:28;;;;;;;3.70;3.30;;;16.00;99.90;;;;;;6187782;23;20012;-94
2022/07/12 02:08:42;;;;;;;3.42;3.08;;;15.70;99.90;;;;;;6258635;23;20342;-95
2022/07/12 02:11:21;;;;;;;4.07;3.67;;;15.80;99.90;;;;;;6235427;23;20019;-96
2022/07/12 02:13:47;;;;;;;3.35;3.05;;;15.80;99.90;;;;;;6205018;23;20055;-95
2022/07/12 02:27:01;;;;;;;4.93;3.60;;;15.90;99.90;;;;;;6187602;23;20415;-94
2022/07/12 02:29:36;;;;;;;4.60;3.67;;;15.90;99.90;;;;;;6168079;23;20020;-96
2022/07/12 02:32:11;;;;;;;4.63;3.95;;;15.80;99.90;;;;;;6214163;23;20016;-94
2022/07/12 02:38:21;;;;;;;4.28;3.88;;;15.90;99.90;;;;;;6250363;23;20465;-95
2022/07/12 02:40:53;;;;;;;4.20;3.63;;;15.90;99.90;;;;;;6198545;23;20012;-95
2022/07/12 02:43:23;;;;;;;4.57;4.10;;;15.90;99.90;;;;;;6199739;23;20008;-95
2022/07/12 02:46:07;;;;;;;4.93;4.43;;;15.80;99.90;;;;;;6224125;23;20480;-96
2022/07/12 02:48:45;;;;;;;4.35;3.90;;;16.00;99.90;;;;;;6228496;23;20377;-96
2022/07/12 02:51:12;;;;;;;5.18;4.05;;;16.00;99.90;;;;;;6204362;23;20434;-96
2022/07/12 02:53:38;;;;;;;4.20;3.80;;;15.90;99.90;;;;;;6199411;23;20039;-96
2022/07/12 02:56:10;;;;;;;4.82;4.32;;;15.90;99.90;;;;;;6198735;23;20015;-96
2022/07/12 03:09:30;;;;;;;4.28;3.88;;;15.90;99.90;;;;;;6255628;23;20084;-96
2022/07/12 03:19:12;;;;;;;4.97;4.20;;;15.80;99.90;;;;;;6253416;23;20015;-96
2022/07/12 03:25:39;;;;;;;5.72;5.10;;;15.70;99.90;;;;;;6295793;22;20042;-96
2022/07/12 03:43:01;;;;;;;6.38;5.78;;;15.80;99.90;;;;;;6191456;22;20454;-96
2022/07/12 03:53:15;;;;;;;6.55;5.70;;;16.10;99.90;;;;;;6287204;22;20103;-96
2022/07/12 03:59:23;;;;;;;6.45;5.65;;;15.80;99.90;;;;;;6287469;22;20006;-96
2022/07/12 04:01:55;;;;;;;6.45;5.53;;;15.60;99.90;;;;;;6229058;22;20016;-95
2022/07/12 04:08:23;;;;;;;6.88;6.18;;;15.60;99.90;;;;;;6189628;22;20012;-96
2022/07/12 04:14:13;;;;;;;5.63;5.03;;;16.10;99.90;;;;;;6277378;22;20069;-96
2022/07/12 04:24:28;;;;;;;7.60;5.90;;;15.70;99.90;;;;;;6135106;23;20008;-96
2022/07/12 04:26:54;;;;;;;8.15;5.75;;;16.00;99.90;;;;;;6104048;23;20026;-95
2022/07/12 04:29:21;;;;;;;6.45;5.80;;;16.00;99.90;;;;;;6147902;23;20052;-95
2022/07/12 04:31:50;;;;;;;10.85;5.63;;;16.00;99.90;;;;;;6200472;23;20015;-96
2022/07/12 04:41:58;;;;;;;16.75;4.80;;;16.10;99.90;;;;;;6142164;23;20012;-94
2022/07/12 04:52:25;;;;;;;13.30;5.13;;;16.20;99.90;;;;;;5943564;24;20029;-96
2022/07/12 04:54:51;;;;;;;9.65;5.45;;;16.30;99.90;;;;;;5889122;23;20013;-96
2022/07/12 04:57:26;;;;;;;6.65;5.70;;;16.30;99.90;;;;;;6043081;23;20069;-95
2022/07/12 04:59:52;;;;;;;6.93;5.35;;;16.50;99.90;;;;;;6104412;23;20014;-96
2022/07/12 05:02:18;;;;;;;6.68;5.22;;;16.30;99.90;;;;;;6140572;23;20116;-96
2022/07/12 05:04:45;;;;;;;6.57;5.88;;;16.30;99.90;;;;;;6198824;23;20008;-94
2022/07/12 05:07:39;;;;;;;8.75;6.18;;;16.40;99.90;;;;;;6177834;23;20061;-96
2022/07/12 05:10:14;;;;;;;8.05;5.85;;;16.40;99.90;;;;;;6185230;23;20020;-96
2022/07/12 05:23:45;;;;;;;8.02;6.35;;;16.90;99.90;;;;;;6152681;23;20029;-96
2022/07/12 05:40:11;;;;;;;6.03;4.97;;;17.00;99.90;;;;;;6036432;23;20034;-96
2022/07/12 05:43:02;;;;;;;6.22;5.15;;;17.00;99.90;;;;;;5981557;23;20030;-95
2022/07/12 05:45:46;;;;;;;5.63;4.50;;;16.70;99.90;;;;;;6000052;23;20000;-96
2022/07/12 05:48:15;;;;;;;6.90;5.05;;;17.00;99.90;;;;;;5998385;23;20050;-96
2022/07/12 07:00:27;;;;;;;8.68;4.47;;;17.50;99.90;;;;;;6253947;23;20024;-91
2022/07/12 07:04:26;;;;;;;6.00;4.38;;;17.70;99.90;;;;;;6227215;23;20070;-90
2022/07/12 07:06:51;;;;;;;5.03;4.13;;;16.70;99.90;;;;;;6225576;23;20052;-90
2022/07/12 07:09:17;;;;;;;5.53;4.93;;;18.00;99.90;;;;;;6197192;23;20016;-90
2022/07/12 07:11:58;;;;;;;5.60;4.43;;;18.10;99.90;;;;;;6223171;23;20395;-92
2022/07/12 07:14:36;;;;;;;4.88;4.38;;;18.30;99.90;;;;;;6224702;23;20012;-91
2022/07/12 07:23:27;;;;;;;4.45;3.95;;;18.10;99.90;;;;;;6253055;22;20519;-92
2022/07/12 07:26:06;;;;;;;4.40;4.00;;;17.90;99.90;;;;;;6229537;23;20020;-91
2022/07/12 07:31:45;;;;;;;4.13;3.72;;;18.20;99.90;;;;;;6220621;23;20161;-89
2022/07/12 07:34:13;;;;;;;5.53;4.22;;;18.20;99.90;;;;;;6224406;23;20012;-87
2022/07/12 07:36:39;;;;;;;4.05;3.65;;;18.20;99.90;;;;;;6277765;22;20040;-92
2022/07/12 07:39:05;;;;;;;4.88;4.13;;;18.40;99.90;;;;;;6228936;23;20027;-91
2022/07/12 07:41:31;;;;;;;4.10;3.67;;;18.80;99.90;;;;;;6194710;23;20095;-92
2022/07/12 07:44:03;;;;;;;4.90;4.13;;;18.60;99.90;;;;;;6220170;23;20016;-89
2022/07/12 07:46:29;;;;;;;4.15;3.40;;;18.10;99.90;;;;;;6248688;22;20020;-90
2022/07/12 07:48:58;;;;;;;5.78;4.65;;;19.00;99.90;;;;;;6227163;23;20040;-89
2022/07/12 07:51:24;;;;;;;4.20;3.80;;;19.10;99.90;;;;;;6224349;23;20023;-90
2022/07/12 07:53:53;;;;;;;5.18;3.50;;;19.30;99.90;;;;;;6228190;23;20016;-91
2022/07/12 07:56:19;;;;;;;4.20;3.83;;;19.40;99.90;;;;;;6229785;23;20154;-88
2022/07/12 07:58:55;;;;;;;5.10;3.83;;;19.50;99.90;;;;;;6203382;23;20039;-89
2022/07/12 08:01:42;;;;;;;4.22;3.83;;;19.70;99.90;;;;;;6224656;23;20012;-89
2022/07/12 08:04:07;;;;;;;3.97;3.67;;;19.50;99.90;;;;;;6247473;23;20034;-88
2022/07/12 08:06:33;;;;;;;4.63;3.80;;;19.60;99.90;;;;;;6228637;23;20027;-90
2022/07/12 08:08:59;;;;;;;5.28;3.75;;;19.80;99.90;;;;;;6202178;23;20016;-92
2022/07/12 08:11:29;;;;;;;3.92;3.53;;;19.80;99.90;;;;;;6227274;23;20020;-90
2022/07/12 08:14:19;;;;;;;4.07;3.63;;;19.80;99.90;;;;;;6229458;23;20016;-90
2022/07/12 08:17:02;;;;;;;4.95;3.60;;;20.10;99.90;;;;;;6201919;23;20008;-90
2022/07/12 08:19:38;;;;;;;4.20;3.78;;;20.10;99.90;;;;;;6182182;23;20016;-89
2022/07/12 08:22:09;;;;;;;4.07;3.67;;;20.10;99.90;;;;;;6226594;23;20116;-90
2022/07/12 08:24:37;;;;;;;3.67;3.30;;;20.50;99.90;;;;;;6230082;23;20008;-90
2022/07/12 08:27:07;;;;;;;5.40;3.70;;;20.50;99.90;;;;;;6233066;23;20016;-89
2022/07/12 08:29:33;;;;;;;4.32;3.47;;;20.40;99.90;;;;;;6181505;23;20020;-89
2022/07/12 08:32:05;;;;;;;3.83;3.33;;;21.00;99.90;;;;;;6227354;23;20031;-91
2022/07/12 08:34:34;;;;;;;4.28;3.35;;;20.60;99.90;;;;;;6225637;23;20433;-92
2022/07/12 08:37:00;;;;;;;4.28;2.85;;;20.60;99.90;;;;;;6225553;23;20008;-88
2022/07/12 08:39:26;;;;;;;4.13;3.45;;;20.40;99.90;;;;;;6227141;23;20043;-88
2022/07/12 08:41:52;;;;;;;4.85;3.70;;;20.70;99.90;;;;;;6202206;23;20540;-91
2022/07/12 08:44:17;;;;;;;3.28;2.83;;;20.90;99.90;;;;;;6222078;23;20016;-89
2022/07/12 08:46:47;;;;;;;3.60;3.25;;;20.20;99.90;;;;;;6199169;23;20042;-90
2022/07/12 08:49:15;;;;;;;4.30;3.28;;;20.80;99.90;;;;;;6223889;23;20020;-91
2022/07/12 08:51:41;;;;;;;3.65;3.20;;;20.80;99.90;;;;;;6224017;23;20023;-91
2022/07/12 08:54:12;;;;;;;4.13;3.50;;;21.10;99.90;;;;;;6226948;23;20113;-91
2022/07/12 08:56:58;;;;;;;3.35;2.90;;;21.10;99.90;;;;;;6201065;23;20091;-91
2022/07/12 08:59:25;;;;;;;3.60;2.90;;;21.40;99.90;;;;;;6226665;23;20495;-92
2022/07/12 09:01:53;;;;;;;4.15;3.72;;;21.10;99.90;;;;;;6224859;23;20012;-91
2022/07/12 09:04:27;;;;;;;3.17;2.70;;;21.30;99.90;;;;;;6225528;23;20027;-90
2022/07/12 09:06:53;;;;;;;3.33;2.85;;;21.40;99.90;;;;;;6225132;23;20016;-90
2022/07/12 09:09:35;;;;;;;3.20;2.83;;;21.60;99.90;;;;;;6225226;23;20012;-91
2022/07/12 09:12:04;;;;;;;3.00;2.80;;;21.60;99.90;;;;;;6201934;23;20023;-88
2022/07/12 09:14:33;;;;;;;4.05;2.78;;;21.90;99.90;;;;;;6201163;23;20020;-90
2022/07/12 09:17:00;;;;;;;2.70;2.50;;;22.00;99.90;;;;;;6224950;23;20012;-92
2022/07/12 09:19:26;;;;;;;3.22;2.70;;;21.90;99.90;;;;;;6229497;23;20385;-89
2022/07/12 09:21:54;;;;;;;2.55;2.35;;;21.90;99.90;;;;;;6232596;23;20166;-89
2022/07/12 09:24:25;;;;;;;3.17;2.83;;;21.70;99.90;;;;;;6207374;23;20018;-87
2022/07/12 09:26:57;;;;;;;2.60;2.40;;;21.90;99.90;;;;;;6204002;23;20016;-90
2022/07/12 09:29:25;;;;;;;2.63;2.30;;;22.40;99.90;;;;;;6199268;23;20048;-88
2022/07/12 09:37:25;;;;;;;2.90;2.70;;;22.40;99.90;;;;;;6258320;23;20024;-89
2022/07/12 09:39:55;;;;;;;3.67;2.60;;;22.90;99.90;;;;;;6233783;23;20023;-88
2022/07/12 09:42:25;;;;;;;2.85;2.65;;;23.00;99.90;;;;;;6204484;23;20024;-90
2022/07/12 09:44:54;;;;;;;2.58;2.35;;;23.00;99.90;;;;;;6203876;23;20020;-89
2022/07/12 09:47:27;;;;;;;2.80;2.47;;;23.10;99.90;;;;;;6226910;23;20016;-95
2022/07/12 09:49:56;;;;;;;3.20;2.90;;;23.00;99.90;;;;;;6227941;23;20012;-91
2022/07/12 09:52:29;;;;;;;3.58;3.03;;;23.20;99.90;;;;;;6225438;23;20020;-93
2022/07/12 09:54:57;;;;;;;4.00;3.60;;;23.20;99.90;;;;;;6229250;23;20012;-92
2022/07/12 09:57:39;;;;;;;4.70;2.70;;;23.50;99.90;;;;;;6227160;23;20058;-88
2022/07/12 10:00:08;;;;;;;3.55;3.10;;;23.20;99.90;;;;;;6226218;23;20008;-92
2022/07/12 10:02:35;;;;;;;4.00;2.88;;;23.70;99.90;;;;;;6225430;23;20443;-88
2022/07/12 10:05:06;;;;;;;2.92;2.55;;;24.00;99.90;;;;;;6224209;23;20020;-90
2022/07/12 10:07:33;;;;;;;3.28;2.60;;;23.90;99.90;;;;;;6227083;23;20337;-88
2022/07/12 10:09:59;;;;;;;2.67;2.47;;;23.70;99.90;;;;;;6225010;23;20645;-88
2022/07/12 10:12:26;;;;;;;3.33;3.05;;;24.00;99.90;;;;;;6198053;23;20008;-89
2022/07/12 10:15:02;;;;;;;2.95;2.65;;;24.40;99.90;;;;;;6223018;23;20091;-90
2022/07/12 10:17:33;;;;;;;2.50;2.30;;;24.70;99.90;;;;;;6226501;23;20044;-90
2022/07/12 10:20:17;;;;;;;3.15;2.08;;;25.30;99.90;;;;;;6201367;23;20008;-88
2022/07/12 10:22:46;;;;;;;2.10;1.90;;;25.50;99.90;;;;;;6252713;23;20016;-90
2022/07/12 10:25:32;;;;;;;2.40;2.20;;;24.70;99.90;;;;;;6227427;23;20016;-90
2022/07/12 10:28:00;;;;;;;2.70;2.50;;;24.40;99.90;;;;;;6224824;23;20046;-89
2022/07/12 10:30:26;;;;;;;3.38;2.22;;;24.60;99.90;;;;;;6222387;23;20070;-91
2022/07/12 10:32:58;;;;;;;1.95;1.80;;;24.70;99.90;;;;;;6200757;23;20015;-89
2022/07/12 10:35:27;;;;;;;2.05;1.85;;;24.40;99.90;;;;;;6199660;23;20095;-91
2022/07/12 10:38:11;;;;;;;2.83;1.80;;;24.60;99.90;;;;;;6225883;23;20022;-91
2022/07/12 10:40:37;;;;;;;;;;;24.70;99.90;;;;;;6225978;23;20013;-90
2022/07/12 10:43:19;;;;;;;2.33;2.13;;;24.60;99.90;;;;;;6230343;23;19912;-91
2022/07/12 10:45:49;;;;;;;1.63;1.52;;;24.80;99.90;;;;;;6229383;23;20012;-91
2022/07/12 10:48:21;;;;;;;2.35;2.13;;;25.20;99.90;;;;;;6230972;23;20019;-88
2022/07/12 10:50:57;;;;;;;3.95;2.15;;;25.40;99.90;;;;;;6230925;23;20016;-88
2022/07/12 10:53:25;;;;;;;2.33;2.10;;;25.50;99.90;;;;;;6231343;23;20095;-89
2022/07/12 10:56:06;;;;;;;2.38;2.15;;;25.80;99.90;;;;;;6230741;23;20015;-90
2022/07/12 10:58:36;;;;;;;1.85;1.70;;;25.70;99.90;;;;;;6230768;23;20023;-88
2022/07/12 11:01:22;;;;;;;2.33;2.08;;;25.10;99.90;;;;;;6202996;23;20016;-90
2022/07/12 11:03:56;;;;;;;2.90;2.28;;;24.80;99.90;;;;;;6228873;23;20051;-89
2022/07/12 11:06:24;;;;;;;;;;;24.90;99.90;;;;;;6230956;23;20027;-89
2022/07/12 11:08:57;;;;;;;1.58;1.48;;;25.00;99.90;;;;;;6227890;23;19918;-89
2022/07/12 11:11:26;;;;;;;2.08;1.88;;;24.70;99.90;;;;;;6214977;23;20345;-92
2022/07/12 11:13:52;;;;;;;3.05;1.70;;;25.00;99.90;;;;;;6203832;23;20341;-90
2022/07/12 11:16:19;;;;;;;2.00;1.70;;;25.10;99.90;;;;;;6228625;23;20015;-91
2022/07/12 11:18:45;;;;;;;3.03;1.50;;;25.00;99.90;;;;;;6202771;23;20012;-91
2022/07/12 11:21:11;;;;;;;2.17;1.67;;;25.10;99.90;;;;;;6201797;23;20015;-90
2022/07/12 11:23:40;;;;;;;1.88;1.33;;;25.10;99.90;;;;;;6227667;23;20016;-88
2022/07/12 11:26:10;;;;;;;1.70;1.60;;;24.80;99.90;;;;;;6202676;23;20027;-90
2022/07/12 11:28:37;;;;;;;2.75;1.30;;;25.10;99.90;;;;;;6203021;23;20043;-91
2022/07/12 11:31:16;;;;;;;1.90;1.50;;;25.30;99.90;;;;;;6228441;23;20024;-89
2022/07/12 11:33:47;;;;;;;2.42;2.00;;;25.30;99.90;;;;;;6229810;23;20123;-89
2022/07/12 11:36:14;;;;;;;1.38;1.20;;;25.30;99.90;;;;;;6229023;23;20060;-90
2022/07/12 11:38:45;;;;;;;2.33;1.33;;;25.30;99.90;;;;;;6229700;23;20094;-91
2022/07/12 11:41:14;;;;;;;1.90;1.20;;;25.50;99.90;;;;;;6231272;23;20012;-89
2022/07/12 11:43:41;;;;;;;1.45;1.17;;;25.70;99.90;;;;;;6230689;23;20019;-90
2022/07/12 11:46:12;;;;;;;2.30;1.23;;;25.30;99.90;;;;;;6209264;23;20022;-89
2022/07/12 11:48:41;;;;;;;1.65;1.20;;;26.00;99.90;;;;;;6229926;23;20016;-90
2022/07/12 11:51:09;;;;;;;1.58;1.20;;;26.20;99.90;;;;;;6228178;23;20020;-89
2022/07/12 11:53:37;;;;;;;1.52;1.40;;;26.40;99.90;;;;;;6202343;23;20016;-89
2022/07/12 11:56:05;;;;;;;2.25;1.13;;;26.40;99.90;;;;;;6226050;23;20012;-89
2022/07/12 11:58:40;;;;;;;1.10;1.00;;;26.90;99.90;;;;;;6228585;23;20040;-89
2022/07/12 12:01:12;;;;;;;2.45;1.30;;;26.90;99.90;;;;;;6231154;23;20333;-89
2022/07/12 12:03:46;;;;;;;1.20;1.10;;;26.90;99.90;;;;;;6229233;23;20012;-92
2022/07/12 12:06:13;;;;;;;1.52;1.17;;;26.80;99.90;;;;;;6225149;23;20069;-89
2022/07/12 12:08:39;;;;;;;1.30;1.20;;;27.30;99.90;;;;;;6199973;23;20011;-89
2022/07/12 12:11:05;;;;;;;1.27;1.17;;;27.30;99.90;;;;;;6227973;23;20020;-89
2022/07/12 12:13:31;;;;;;;2.42;1.38;;;27.20;99.90;;;;;;6226198;23;20020;-91
2022/07/12 12:15:59;;;;;;;2.13;1.42;;;27.10;99.90;;;;;;6203836;23;20460;-88
2022/07/12 12:18:30;;;;;;;1.30;1.10;;;27.30;99.90;;;;;;6200670;23;20097;-90
2022/07/12 12:21:01;;;;;;;1.98;1.30;;;27.60;99.90;;;;;;6202036;23;20014;-88
2022/07/12 12:23:30;;;;;;;1.25;1.10;;;27.40;99.90;;;;;;6226360;23;20070;-91
2022/07/12 12:26:20;;;;;;;1.65;1.50;;;27.40;99.90;;;;;;6251032;23;20034;-90
2022/07/12 12:28:51;;;;;;;2.70;1.13;;;27.60;99.90;;;;;;6203675;23;20016;-90
2022/07/12 12:31:18;;;;;;;1.38;1.27;;;27.60;99.90;;;;;;6226486;23;20016;-91
2022/07/12 12:33:58;;;;;;;1.50;1.33;;;27.90;99.90;;;;;;6201947;23;20070;-92
2022/07/12 12:36:35;;;;;;;1.27;1.08;;;27.80;99.90;;;;;;6203050;23;20012;-88
2022/07/12 12:39:02;;;;;;;1.20;1.10;;;27.90;99.90;;;;;;6227195;23;20019;-90
2022/07/12 12:41:29;;;;;;;1.40;1.10;;;27.90;99.90;;;;;;6225884;23;20488;-91
2022/07/12 12:44:16;;;;;;;5.45;1.25;;;28.00;99.90;;;;;;6227864;23;20055;-90
2022/07/12 12:46:55;;;;;;;1.38;1.00;;;28.10;99.90;;;;;;6199278;23;20030;-91
2022/07/12 12:50:00;;;;;;;2.40;1.10;;;28.20;99.90;;;;;;6199866;23;20016;-90
2022/07/12 12:52:29;;;;;;;1.10;1.00;;;28.20;99.90;;;;;;6105634;23;20025;-90
2022/07/12 12:54:57;;;;;;;1.00;0.90;;;28.00;99.90;;;;;;6079031;23;20347;-91
2022/07/12 12:57:25;;;;;;;1.17;0.82;;;28.10;99.90;;;;;;6148802;23;20091;-94
2022/07/12 12:59:52;;;;;;;1.20;0.93;;;28.40;99.90;;;;;;6222881;23;20016;-88
2022/07/12 13:02:20;;;;;;;1.25;0.90;;;28.30;99.90;;;;;;6198370;23;20051;-91
2022/07/12 13:04:46;;;;;;;0.80;0.80;;;28.00;99.90;;;;;;6225450;23;20080;-90
2022/07/12 13:07:11;;;;;;;2.13;0.70;;;28.00;99.90;;;;;;6223305;23;20058;-88
2022/07/12 13:09:37;;;;;;;1.02;0.90;;;28.20;99.90;;;;;;6195405;23;20019;-91
2022/07/12 13:12:07;;;;;;;3.00;0.90;;;28.00;99.90;;;;;;6227640;23;20012;-90
2022/07/12 13:14:34;;;;;;;1.90;0.93;;;27.70;99.90;;;;;;6231382;23;20019;-88
2022/07/12 13:17:00;;;;;;;1.38;0.90;;;27.80;99.90;;;;;;6229290;23;20013;-91
2022/07/12 13:19:26;;;;;;;2.88;1.13;;;28.00;99.90;;;;;;6227279;23;20012;-88
2022/07/12 13:21:52;;;;;;;1.25;1.10;;;27.80;99.90;;;;;;6227754;23;20023;-89
2022/07/12 13:24:18;;;;;;;1.25;0.90;;;27.70;99.90;;;;;;6202289;23;20012;-91
2022/07/12 13:26:47;;;;;;;2.30;1.10;;;27.50;99.90;;;;;;6229192;23;20016;-91
2022/07/12 13:29:14;;;;;;;1.70;1.10;;;27.40;99.90;;;;;;6229663;23;20023;-90
2022/07/12 13:31:40;;;;;;;1.58;1.10;;;27.30;99.90;;;;;;6202115;23;20337;-88
2022/07/12 13:34:06;;;;;;;2.85;1.33;;;27.20;99.90;;;;;;6200006;23;20020;-90
2022/07/12 13:36:32;;;;;;;1.38;1.10;;;27.20;99.90;;;;;;6202306;23;20027;-90
2022/07/12 13:41:48;;;;;;;2.38;0.88;;;27.20;99.90;;;;;;6230604;23;20020;-90
2022/07/12 13:44:15;;;;;;;1.00;0.90;;;27.10;99.90;;;;;;6202175;23;20313;-91
2022/07/12 13:46:41;;;;;;;2.85;1.15;;;27.00;99.90;;;;;;6226931;23;20027;-89
2022/07/12 13:49:07;;;;;;;1.33;1.02;;;27.10;99.90;;;;;;6227969;23;20095;-88
2022/07/12 13:51:33;;;;;;;1.50;1.10;;;27.30;99.90;;;;;;6282372;22;20023;-92
2022/07/12 13:54:08;;;;;;;1.52;1.23;;;26.90;99.90;;;;;;6228271;23;20020;-89
2022/07/12 13:56:34;;;;;;;1.35;1.08;;;26.90;99.90;;;;;;6227481;23;20024;-90
2022/07/12 13:59:00;;;;;;;2.85;1.35;;;26.80;99.90;;;;;;6227980;23;20047;-90
2022/07/12 14:01:29;;;;;;;1.08;0.90;;;26.80;99.90;;;;;;6194282;23;20012;-88
2022/07/12 14:03:55;;;;;;;1.73;1.30;;;27.00;99.90;;;;;;6201678;23;20039;-90
2022/07/12 14:06:23;;;;;;;1.95;1.15;;;27.00;99.90;;;;;;6226213;23;20053;-91
2022/07/12 14:08:50;;;;;;;2.92;1.23;;;27.10;99.90;;;;;;6201771;23;20337;-90
2022/07/12 14:11:16;;;;;;;1.60;1.40;;;27.00;99.90;;;;;;6225435;23;20113;-89
2022/07/12 14:13:42;;;;;;;2.42;1.55;;;26.90;99.90;;;;;;6201467;23;20048;-88
2022/07/12 14:16:08;;;;;;;2.40;1.48;;;27.10;99.90;;;;;;6226163;23;20402;-90
2022/07/12 14:18:37;;;;;;;2.67;1.40;;;27.20;99.90;;;;;;6226647;23;20019;-88
2022/07/12 14:21:06;;;;;;;1.55;1.45;;;27.10;99.90;;;;;;6202096;23;20008;-88
2022/07/12 14:23:37;;;;;;;3.28;1.50;;;27.10;99.90;;;;;;6202704;23;20008;-90
2022/07/12 14:26:05;;;;;;;3.45;1.50;;;26.70;99.90;;;;;;6201150;23;20031;-93
2022/07/12 14:28:31;;;;;;;1.85;1.40;;;26.50;99.90;;;;;;6227834;23;20614;-91
2022/07/12 14:31:05;;;;;;;2.33;1.40;;;26.50;99.90;;;;;;6201837;23;20047;-89
2022/07/12 14:33:31;;;;;;;2.63;1.27;;;26.50;99.90;;;;;;6228799;23;20023;-89
2022/07/12 14:35:58;;;;;;;1.50;1.20;;;26.60;99.90;;;;;;6201350;23;20012;-90
2022/07/12 14:38:24;;;;;;;2.70;1.50;;;26.70;99.90;;;;;;6226592;23;20016;-90
2022/07/12 14:40:56;;;;;;;1.73;1.35;;;26.50;99.90;;;;;;6228318;23;20083;-89
2022/07/12 14:43:22;;;;;;;2.35;1.50;;;26.50;99.90;;;;;;6225709;23;20059;-91
2022/07/12 14:45:48;;;;;;;1.50;1.40;;;26.50;99.90;;;;;;6227729;23;20012;-93
2022/07/12 14:48:14;;;;;;;3.45;1.50;;;26.30;99.90;;;;;;6226378;23;20066;-91
2022/07/12 14:50:40;;;;;;;2.90;1.33;;;26.50;99.90;;;;;;6204804;23;20020;-89
2022/07/12 14:53:06;;;;;;;4.07;1.23;;;26.60;99.90;;;;;;6226611;23;20019;-91
2022/07/12 14:55:32;;;;;;;1.65;1.40;;;26.60;99.90;;;;;;6226592;23;20016;-91
2022/07/12 14:57:58;;;;;;;2.17;1.48;;;26.50;99.90;;;;;;6226728;23;20062;-90
2022/07/12 15:00:24;;;;;;;1.50;1.40;;;26.70;99.90;;;;;;6201660;23;20019;-88
2022/07/12 15:02:50;;;;;;;2.17;1.55;;;26.60;99.90;;;;;;6228374;23;20047;-89
2022/07/12 15:05:16;;;;;;;1.70;1.40;;;26.60;99.90;;;;;;6202310;23;20058;-89
2022/07/12 15:07:42;;;;;;;1.40;1.30;;;26.50;99.90;;;;;;6226578;23;20394;-90
2022/07/12 15:10:08;;;;;;;2.45;1.40;;;26.50;99.90;;;;;;6228694;23;20013;-93
2022/07/12 15:12:34;;;;;;;2.05;1.50;;;26.40;99.90;;;;;;6228807;23;20091;-90
2022/07/12 15:15:02;;;;;;;4.07;1.55;;;26.40;99.90;;;;;;6231764;23;20012;-89
2022/07/12 15:17:28;;;;;;;3.30;1.40;;;26.30;99.90;;;;;;6233411;23;20040;-88
2022/07/12 15:19:54;;;;;;;3.63;1.30;;;26.20;99.90;;;;;;6232809;23;20019;-88
2022/07/12 15:22:20;;;;;;;2.75;1.30;;;26.20;99.90;;;;;;6205236;23;20012;-88
2022/07/12 15:24:46;;;;;;;2.55;1.67;;;26.30;99.90;;;;;;6230569;23;20432;-88
2022/07/12 15:27:13;;;;;;;2.35;1.33;;;26.10;99.90;;;;;;6231719;23;20337;-87
2022/07/12 15:29:44;;;;;;;1.52;1.30;;;26.10;99.90;;;;;;6234120;23;20016;-87
2022/07/12 15:32:12;;;;;;;1.80;1.10;;;26.50;99.90;;;;;;6208741;23;20016;-88
2022/07/12 15:34:38;;;;;;;2.25;1.20;;;26.10;99.90;;;;;;6207347;23;20024;-87
2022/07/12 15:37:04;;;;;;;1.50;1.27;;;25.90;99.90;;;;;;6233334;23;20012;-86
2022/07/12 15:39:30;;;;;;;1.58;1.40;;;25.80;99.90;;;;;;6231090;23;20012;-88
2022/07/12 15:41:59;;;;;;;1.73;1.30;;;25.80;99.90;;;;;;6233063;23;20074;-87
2022/07/12 15:44:25;;;;;;;2.13;1.38;;;25.80;99.90;;;;;;6204590;23;20012;-89
2022/07/12 15:46:52;;;;;;;1.95;1.25;;;25.80;99.90;;;;;;6229026;23;20020;-89
2022/07/12 15:49:18;;;;;;;2.70;1.60;;;25.70;99.90;;;;;;6205539;23;20018;-90
2022/07/12 15:54:36;;;;;;;3.15;1.30;;;25.80;99.90;;;;;;6230155;23;20020;-87
2022/07/12 15:57:04;;;;;;;1.40;1.30;;;25.70;99.90;;;;;;6229022;23;20012;-89
2022/07/12 15:59:30;;;;;;;1.65;1.13;;;25.70;99.90;;;;;;6201304;23;20069;-93
2022/07/12 16:01:56;;;;;;;1.60;1.20;;;25.80;99.90;;;;;;6203927;23;20027;-87
2022/07/12 16:04:22;;;;;;;2.83;1.10;;;25.80;99.90;;;;;;6227886;23;20020;-90
2022/07/12 16:06:51;;;;;;;2.38;1.27;;;25.80;99.90;;;;;;6224723;23;20012;-91
2022/07/12 16:09:17;;;;;;;2.83;1.25;;;25.50;99.90;;;;;;6228033;23;20319;-88
2022/07/12 16:11:43;;;;;;;2.03;1.17;;;25.50;99.90;;;;;;6205853;23;20016;-88
2022/07/12 16:14:15;;;;;;;2.08;1.10;;;25.40;99.90;;;;;;6228728;23;20043;-88
2022/07/12 16:16:41;;;;;;;1.48;1.15;;;25.40;99.90;;;;;;6222137;23;20103;-87
2022/07/12 16:19:06;;;;;;;1.88;1.27;;;25.10;99.90;;;;;;6224591;23;20013;-88
2022/07/12 16:21:33;;;;;;;1.95;1.30;;;25.00;99.90;;;;;;6196475;23;20012;-90
2022/07/12 16:23:59;;;;;;;2.15;0.90;;;24.90;99.90;;;;;;6222651;23;20349;-90
2022/07/12 16:26:25;;;;;;;1.38;1.20;;;24.90;99.90;;;;;;6222710;23;20016;-90
2022/07/12 16:28:50;;;;;;;1.88;1.02;;;24.80;99.90;;;;;;6224239;23;20016;-89
2022/07/12 16:31:26;;;;;;;3.25;1.25;;;24.80;99.90;;;;;;6224943;23;20016;-87
2022/07/12 16:33:52;;;;;;;2.33;1.23;;;24.70;99.90;;;;;;6227583;23;20016;-89
2022/07/12 16:36:18;;;;;;;3.70;1.50;;;24.60;99.90;;;;;;6226021;23;20020;-89
2022/07/12 16:38:56;;;;;;;1.25;1.15;;;24.50;99.90;;;;;;6225176;23;20019;-90
2022/07/12 16:41:26;;;;;;;1.30;1.20;;;24.50;99.90;;;;;;6226554;23;20349;-88
2022/07/12 16:43:53;;;;;;;1.77;1.02;;;24.40;99.90;;;;;;6229714;23;20073;-88
2022/07/12 16:46:20;;;;;;;2.00;1.55;;;24.50;99.90;;;;;;6211561;23;20016;-88
2022/07/12 16:48:49;;;;;;;1.67;1.30;;;24.40;99.90;;;;;;6229464;23;20384;-92